Time;durP1;ratioP1;P1;durP2;ratioP2;P2;SDS_P1;SDS_P2;PMS_P1;PMS_P2;Temp;Humidity;BMP_temperature;BMP_pressure;BME280_temperature;BME280_humidity;BME280_pressure;Samples;Min_cycle;Max_cycle;Signal;HPM_P1;HPM_P2
2023/11/17 00:02:23;;;;;;;3.33;1.50;;;16.40;57.10;;;;;;6099840;29;20064;-73
2023/11/17 00:05:25;;;;;;;7.05;1.73;;;16.30;57.10;;;;;;6083605;29;20028;-74
2023/11/17 00:08:28;;;;;;;5.05;1.85;;;16.30;57.20;;;;;;6100216;29;20406;-73
2023/11/17 00:11:34;;;;;;;4.70;1.63;;;16.30;57.20;;;;;;6099640;29;20055;-73
2023/11/17 00:14:37;;;;;;;2.10;1.20;;;16.40;57.40;;;;;;6099980;29;20055;-73
2023/11/17 00:17:40;;;;;;;3.65;1.35;;;16.30;57.30;;;;;;6099677;29;20047;-74
2023/11/17 00:20:41;;;;;;;4.30;1.25;;;16.30;57.50;;;;;;6100129;29;20036;-73
2023/11/17 00:23:44;;;;;;;1.65;0.70;;;16.40;57.50;;;;;;6100004;29;20533;-73
2023/11/17 00:26:47;;;;;;;2.50;0.80;;;16.30;56.90;;;;;;6098791;29;20410;-73
2023/11/17 00:29:51;;;;;;;0.85;0.65;;;16.30;56.00;;;;;;6083123;29;20346;-73
2023/11/17 00:32:55;;;;;;;4.32;0.60;;;16.30;55.30;;;;;;6099909;29;20032;-73
2023/11/17 00:35:55;;;;;;;3.28;0.80;;;16.30;55.20;;;;;;6083157;29;20044;-73
2023/11/17 00:38:58;;;;;;;0.82;0.55;;;16.40;55.30;;;;;;6098386;29;20454;-74
2023/11/17 00:42:02;;;;;;;1.50;0.60;;;16.50;55.40;;;;;;6099308;29;20048;-72
2023/11/17 00:45:07;;;;;;;2.60;0.40;;;16.60;55.20;;;;;;6066784;29;20654;-73
2023/11/17 00:48:10;;;;;;;2.15;0.80;;;16.70;55.00;;;;;;6099018;29;20477;-74
2023/11/17 00:51:11;;;;;;;8.65;0.98;;;16.80;54.70;;;;;;6082462;29;20051;-74
2023/11/17 00:54:14;;;;;;;0.68;0.30;;;16.80;54.20;;;;;;6099033;29;20127;-73
2023/11/17 00:57:17;;;;;;;0.93;0.40;;;16.80;53.90;;;;;;6081976;29;20063;-73
2023/11/17 01:00:18;;;;;;;6.78;1.13;;;16.80;53.80;;;;;;6098873;29;20039;-73
2023/11/17 01:03:20;;;;;;;5.53;1.08;;;16.80;54.00;;;;;;6099394;29;20111;-73
2023/11/17 01:06:22;;;;;;;6.05;1.02;;;16.70;54.60;;;;;;6066753;29;20063;-73
2023/11/17 01:09:26;;;;;;;7.93;1.65;;;16.60;55.30;;;;;;6081982;29;20063;-73
2023/11/17 01:12:28;;;;;;;4.35;1.58;;;16.50;56.00;;;;;;6082056;29;20036;-73
2023/11/17 01:15:36;;;;;;;5.13;1.42;;;16.40;56.50;;;;;;6081775;29;20449;-73
2023/11/17 01:18:38;;;;;;;5.47;1.48;;;16.20;56.80;;;;;;6098573;29;20465;-72
2023/11/17 01:21:41;;;;;;;5.07;1.52;;;16.10;57.20;;;;;;6099167;29;20028;-74
2023/11/17 01:24:45;;;;;;;4.13;1.10;;;15.90;57.40;;;;;;6098542;29;20040;-72
2023/11/17 01:27:47;;;;;;;3.53;0.98;;;15.90;57.50;;;;;;6096224;29;20055;-73
2023/11/17 01:30:49;;;;;;;5.32;0.90;;;15.90;57.60;;;;;;6096835;29;20063;-73
2023/11/17 01:33:51;;;;;;;2.70;1.05;;;15.90;57.30;;;;;;6097882;29;20140;-73
2023/11/17 01:36:54;;;;;;;2.20;0.93;;;15.70;57.20;;;;;;6097864;29;20051;-74
2023/11/17 01:39:58;;;;;;;3.05;1.83;;;15.90;57.30;;;;;;6097867;29;20059;-73
2023/11/17 01:43:05;;;;;;;3.50;0.70;;;15.90;57.30;;;;;;6097735;29;20028;-73
2023/11/17 01:46:08;;;;;;;4.10;1.23;;;15.90;57.30;;;;;;6065998;29;20068;-74
2023/11/17 01:49:12;;;;;;;5.07;1.00;;;15.90;57.10;;;;;;6081051;29;20347;-73
2023/11/17 01:52:17;;;;;;;0.20;0.20;;;16.00;56.80;;;;;;6081068;29;20028;-73
2023/11/17 01:55:21;;;;;;;7.05;0.65;;;16.00;56.50;;;;;;6082005;29;20032;-73
2023/11/17 01:58:24;;;;;;;0.43;0.28;;;16.00;56.30;;;;;;6080696;29;20169;-73
2023/11/17 02:01:27;;;;;;;2.53;0.93;;;16.10;56.10;;;;;;6080079;29;20100;-73
2023/11/17 02:04:32;;;;;;;3.40;0.75;;;16.10;56.50;;;;;;6097330;29;20036;-73
2023/11/17 02:07:50;;;;;;;2.85;0.57;;;16.10;55.90;;;;;;6080329;29;20056;-73
2023/11/17 02:11:24;;;;;;;0.98;0.22;;;16.00;55.80;;;;;;6065145;29;20044;-73
2023/11/17 02:14:36;;;;;;;0.95;0.38;;;16.00;55.70;;;;;;6064840;29;20040;-74
2023/11/17 02:17:49;;;;;;;3.42;0.55;;;16.00;55.80;;;;;;6051694;29;20047;-74
2023/11/17 02:21:05;;;;;;;9.50;0.73;;;16.00;56.40;;;;;;6049500;29;20052;-72
2023/11/17 02:24:16;;;;;;;2.72;0.35;;;16.00;55.90;;;;;;6095813;29;20347;-73
2023/11/17 02:27:59;;;;;;;2.05;0.73;;;15.90;56.00;;;;;;6095787;29;20028;-74
2023/11/17 02:31:25;;;;;;;0.65;0.30;;;15.80;56.20;;;;;;6084886;29;20119;-74
2023/11/17 02:34:30;;;;;;;0.52;0.40;;;15.70;56.30;;;;;;6097046;29;20473;-72
2023/11/17 02:37:38;;;;;;;2.83;0.55;;;15.70;56.50;;;;;;6080147;29;20067;-73
2023/11/17 02:40:45;;;;;;;0.95;0.40;;;15.60;56.50;;;;;;6095783;29;20060;-72
2023/11/17 02:43:49;;;;;;;4.03;0.30;;;15.70;56.50;;;;;;6095475;29;20068;-74
2023/11/17 02:46:58;;;;;;;1.10;0.50;;;15.70;56.50;;;;;;6064389;29;20100;-73
2023/11/17 02:50:10;;;;;;;1.55;0.30;;;15.70;56.50;;;;;;6097027;29;20036;-73
2023/11/17 02:53:35;;;;;;;0.57;0.35;;;15.70;56.40;;;;;;6096683;29;20050;-73
2023/11/17 02:56:41;;;;;;;3.45;0.30;;;15.70;56.20;;;;;;6094142;29;20068;-73
2023/11/17 02:59:45;;;;;;;0.77;0.22;;;15.70;56.00;;;;;;6079723;29;20063;-73
2023/11/17 03:02:47;;;;;;;5.25;0.38;;;15.70;56.00;;;;;;6080285;29;20040;-74
2023/11/17 03:05:58;;;;;;;1.73;0.52;;;15.70;56.00;;;;;;6080108;29;20063;-73
2023/11/17 03:09:06;;;;;;;1.40;0.50;;;15.60;56.10;;;;;;6080350;29;20039;-75
2023/11/17 03:12:18;;;;;;;3.83;0.50;;;15.70;56.10;;;;;;6098432;29;20308;-73
2023/11/17 03:15:22;;;;;;;0.85;0.17;;;15.80;56.20;;;;;;6101262;29;20123;-72
2023/11/17 03:18:26;;;;;;;3.60;0.22;;;15.80;56.20;;;;;;6100952;29;20040;-72
2023/11/17 03:21:30;;;;;;;1.40;0.35;;;15.80;56.20;;;;;;6100733;29;20170;-74
2023/11/17 03:24:34;;;;;;;1.80;0.43;;;15.80;56.20;;;;;;6099561;29;20079;-77
2023/11/17 03:27:35;;;;;;;8.30;0.45;;;15.90;56.30;;;;;;6084092;29;20532;-74
2023/11/17 03:30:40;;;;;;;0.05;0.05;;;15.90;56.30;;;;;;6100691;29;20032;-74
2023/11/17 03:33:50;;;;;;;0.35;0.20;;;15.90;56.10;;;;;;6083629;29;20119;-72
2023/11/17 03:37:05;;;;;;;1.42;0.30;;;15.80;56.00;;;;;;6100333;29;20047;-73
2023/11/17 03:40:11;;;;;;;0.10;0.10;;;15.70;55.90;;;;;;6083650;29;20054;-74
2023/11/17 03:43:14;;;;;;;1.20;0.32;;;15.80;56.20;;;;;;6098341;29;20048;-73
2023/11/17 03:46:17;;;;;;;0.35;0.35;;;15.70;56.10;;;;;;6068337;29;20044;-73
2023/11/17 03:49:21;;;;;;;0.10;0.10;;;15.60;56.30;;;;;;6083859;29;20066;-73
2023/11/17 03:52:26;;;;;;;0.32;0.32;;;15.60;56.30;;;;;;6083592;29;20028;-73
2023/11/17 03:55:27;;;;;;;1.88;0.20;;;15.70;56.40;;;;;;6100899;29;20571;-73
2023/11/17 03:58:30;;;;;;;1.60;0.20;;;15.80;56.50;;;;;;6100151;29;20119;-73
2023/11/17 04:01:31;;;;;;;4.78;0.52;;;15.70;56.60;;;;;;6083237;29;20043;-73
2023/11/17 04:04:34;;;;;;;0.25;0.22;;;15.70;57.00;;;;;;6100295;29;20032;-73
2023/11/17 04:07:36;;;;;;;0.63;0.17;;;15.60;57.20;;;;;;6100177;29;20140;-74
2023/11/17 04:10:39;;;;;;;3.35;0.50;;;15.60;57.60;;;;;;6083353;29;20072;-72
2023/11/17 04:13:42;;;;;;;1.15;0.30;;;15.50;57.90;;;;;;6099711;29;20617;-72
2023/11/17 04:16:46;;;;;;;6.80;0.40;;;15.60;58.00;;;;;;6083102;29;20123;-75
2023/11/17 04:19:50;;;;;;;2.72;0.52;;;15.50;58.30;;;;;;6099695;29;20059;-73
2023/11/17 04:22:55;;;;;;;0.98;0.45;;;15.50;58.50;;;;;;6082289;29;20054;-73
2023/11/17 04:25:57;;;;;;;1.00;0.30;;;15.50;58.60;;;;;;6083027;29;20379;-73
2023/11/17 04:28:58;;;;;;;2.20;0.43;;;15.40;58.30;;;;;;6082517;29;20051;-74
2023/11/17 04:32:00;;;;;;;0.77;0.30;;;15.40;58.20;;;;;;6082960;29;20685;-74
2023/11/17 04:35:03;;;;;;;1.33;0.43;;;15.30;58.30;;;;;;6099674;29;20036;-74
2023/11/17 04:38:06;;;;;;;2.10;0.35;;;15.20;58.30;;;;;;6100133;29;20044;-73
2023/11/17 04:41:11;;;;;;;5.00;0.68;;;15.20;58.30;;;;;;6099587;29;20067;-74
2023/11/17 04:44:13;;;;;;;1.23;0.35;;;15.10;58.30;;;;;;6082612;29;20597;-73
2023/11/17 04:47:19;;;;;;;3.85;0.60;;;15.10;58.30;;;;;;6099011;29;20032;-73
2023/11/17 04:50:21;;;;;;;0.32;0.30;;;15.10;58.40;;;;;;6098475;29;20520;-73
2023/11/17 04:53:23;;;;;;;1.52;0.38;;;15.00;58.40;;;;;;6099233;29;20036;-72
2023/11/17 04:56:24;;;;;;;1.10;0.60;;;15.00;58.20;;;;;;6082203;29;20124;-72
2023/11/17 04:59:29;;;;;;;1.10;0.30;;;14.90;58.00;;;;;;6098758;29;20072;-73
2023/11/17 05:02:33;;;;;;;0.55;0.30;;;14.90;58.10;;;;;;6098800;29;20040;-73
2023/11/17 05:05:35;;;;;;;1.30;0.40;;;14.90;58.10;;;;;;6082516;29;20028;-72
2023/11/17 05:08:38;;;;;;;0.38;0.20;;;14.90;58.10;;;;;;6099749;29;20382;-72
2023/11/17 05:11:39;;;;;;;0.50;0.40;;;14.90;58.10;;;;;;6082031;29;20067;-73
2023/11/17 05:14:42;;;;;;;0.30;0.30;;;15.00;58.00;;;;;;6081651;29;20120;-73
2023/11/17 05:17:48;;;;;;;0.30;0.30;;;15.00;58.00;;;;;;6098382;29;20090;-73
2023/11/17 05:20:52;;;;;;;0.95;0.40;;;15.00;58.00;;;;;;6098366;29;20426;-73
2023/11/17 05:23:56;;;;;;;3.13;0.60;;;15.00;57.80;;;;;;6081471;29;20048;-73
2023/11/17 05:26:59;;;;;;;0.30;0.30;;;15.10;57.80;;;;;;6098910;29;20367;-73
2023/11/17 05:30:01;;;;;;;0.10;0.10;;;15.10;57.80;;;;;;6099886;29;20376;-74
2023/11/17 05:33:04;;;;;;;0.10;0.10;;;15.10;57.80;;;;;;6067589;29;20049;-74
2023/11/17 05:36:06;;;;;;;0.80;0.40;;;15.10;57.70;;;;;;6100640;29;20111;-73
2023/11/17 05:39:10;;;;;;;1.63;0.50;;;15.10;57.50;;;;;;6098777;29;20095;-73
2023/11/17 05:42:14;;;;;;;0.25;0.22;;;15.00;57.20;;;;;;6098401;29;20437;-72
2023/11/17 05:45:16;;;;;;;0.17;0.17;;;15.00;57.00;;;;;;6097132;29;20035;-74
2023/11/17 05:48:18;;;;;;;1.65;0.22;;;15.00;57.00;;;;;;6098361;29;20055;-72
2023/11/17 05:51:20;;;;;;;0.65;0.20;;;15.00;56.90;;;;;;6081284;29;20039;-73
2023/11/17 05:54:24;;;;;;;0.38;0.32;;;15.00;57.20;;;;;;6081082;29;20147;-73
2023/11/17 05:57:26;;;;;;;2.67;0.30;;;15.00;57.50;;;;;;6097584;29;20123;-73
2023/11/17 06:00:28;;;;;;;0.63;0.40;;;15.10;57.30;;;;;;6097768;29;20357;-72
2023/11/17 06:03:32;;;;;;;2.15;0.52;;;15.10;57.40;;;;;;6080910;29;20040;-74
2023/11/17 06:06:35;;;;;;;3.60;0.80;;;15.00;57.60;;;;;;6097392;29;20040;-73
2023/11/17 06:09:38;;;;;;;0.63;0.35;;;15.00;58.10;;;;;;6080083;29;20047;-73
2023/11/17 06:12:41;;;;;;;2.67;0.50;;;15.00;58.10;;;;;;6064442;29;20048;-74
2023/11/17 06:15:43;;;;;;;1.55;0.32;;;14.90;57.80;;;;;;6080425;29;20024;-73
2023/11/17 06:18:47;;;;;;;1.17;0.52;;;14.90;57.60;;;;;;6095396;29;20071;-74
2023/11/17 06:21:50;;;;;;;0.40;0.38;;;14.90;57.50;;;;;;6096583;29;20374;-74
2023/11/17 06:24:52;;;;;;;0.43;0.40;;;14.90;57.40;;;;;;6096149;29;20056;-72
2023/11/17 06:27:54;;;;;;;0.20;0.20;;;14.80;57.20;;;;;;6097415;29;20473;-73
2023/11/17 06:30:55;;;;;;;1.30;0.60;;;14.80;57.10;;;;;;6096551;29;20064;-73
2023/11/17 06:34:00;;;;;;;6.22;0.43;;;14.80;57.10;;;;;;6097823;29;20039;-73
2023/11/17 06:37:04;;;;;;;1.38;0.57;;;14.70;57.00;;;;;;6080581;29;20047;-73
2023/11/17 06:40:15;;;;;;;0.55;0.20;;;14.60;57.00;;;;;;6096388;29;20035;-73
2023/11/17 06:43:19;;;;;;;0.20;0.20;;;14.60;57.00;;;;;;6064734;29;20046;-73
2023/11/17 06:46:23;;;;;;;0.20;0.20;;;14.60;56.90;;;;;;6079435;29;20032;-74
2023/11/17 06:49:27;;;;;;;0.90;0.35;;;14.60;56.70;;;;;;6096791;29;20063;-73
2023/11/17 06:52:29;;;;;;;1.58;0.68;;;14.60;56.80;;;;;;6096248;29;20382;-74
2023/11/17 06:55:52;;;;;;;24.08;3.83;;;14.60;57.50;;;;;;6079378;29;20059;-73
2023/11/17 06:58:55;;;;;;;1.77;0.50;;;14.60;58.30;;;;;;6023507;29;20129;-74
2023/11/17 07:02:03;;;;;;;1.60;0.75;;;14.60;58.80;;;;;;6008835;29;20863;-73
2023/11/17 07:05:11;;;;;;;0.68;0.43;;;14.50;58.90;;;;;;6024221;29;20083;-73
2023/11/17 07:08:13;;;;;;;1.00;0.50;;;14.50;59.10;;;;;;6024962;29;20061;-74
2023/11/17 07:11:17;;;;;;;1.67;0.60;;;14.50;58.80;;;;;;6023874;29;20174;-75
2023/11/17 07:14:20;;;;;;;0.40;0.30;;;14.50;58.70;;;;;;6009708;29;20046;-74
2023/11/17 07:17:24;;;;;;;1.10;0.52;;;14.50;58.40;;;;;;5984922;29;20133;-74
2023/11/17 07:20:29;;;;;;;1.20;0.60;;;14.50;58.20;;;;;;5984932;29;20106;-74
2023/11/17 07:23:33;;;;;;;0.95;0.40;;;14.40;57.90;;;;;;6000294;29;20053;-75
2023/11/17 07:26:38;;;;;;;1.00;0.52;;;14.50;57.90;;;;;;5970018;29;20074;-73
2023/11/17 07:29:43;;;;;;;0.38;0.38;;;14.50;57.80;;;;;;6037674;29;20195;-74
2023/11/17 07:32:46;;;;;;;0.82;0.50;;;14.50;57.50;;;;;;6055761;29;20085;-73
2023/11/17 07:35:46;;;;;;;3.40;0.55;;;14.50;57.40;;;;;;6055670;29;20047;-75
2023/11/17 07:38:51;;;;;;;1.48;0.70;;;14.60;57.70;;;;;;6055406;29;20036;-75
2023/11/17 07:41:55;;;;;;;0.85;0.35;;;14.60;58.10;;;;;;6054763;29;20426;-73
2023/11/17 07:45:05;;;;;;;0.50;0.28;;;14.70;58.10;;;;;;6072912;29;20422;-74
2023/11/17 07:48:07;;;;;;;0.30;0.30;;;14.70;57.60;;;;;;6095860;29;20039;-74
2023/11/17 07:51:13;;;;;;;0.90;0.60;;;14.80;57.00;;;;;;6095422;29;20323;-73
2023/11/17 07:54:17;;;;;;;0.10;0.10;;;14.80;56.50;;;;;;6078534;29;20095;-73
2023/11/17 07:57:19;;;;;;;0.20;0.20;;;14.90;56.40;;;;;;6079832;29;20111;-73
2023/11/17 08:00:27;;;;;;;0.30;0.30;;;14.80;56.10;;;;;;6082359;29;20107;-74
2023/11/17 08:03:30;;;;;;;0.82;0.10;;;14.90;56.00;;;;;;6083082;29;20153;-74
2023/11/17 08:06:35;;;;;;;1.02;0.43;;;14.80;55.10;;;;;;6100160;29;20111;-74
2023/11/17 08:09:39;;;;;;;0.93;0.20;;;14.80;55.20;;;;;;6099353;29;20040;-74
2023/11/17 08:12:41;;;;;;;0.20;0.20;;;14.90;55.20;;;;;;6082299;29;20055;-72
2023/11/17 08:15:44;;;;;;;1.30;0.40;;;14.90;54.90;;;;;;6097483;29;20032;-75
2023/11/17 08:18:50;;;;;;;5.68;0.47;;;14.90;54.80;;;;;;6099412;29;20055;-73
2023/11/17 08:21:55;;;;;;;1.02;0.40;;;14.90;54.60;;;;;;6099150;29;20058;-74
2023/11/17 08:25:11;;;;;;;1.48;0.70;;;14.90;54.10;;;;;;6083161;29;20135;-74
2023/11/17 08:28:16;;;;;;;0.22;0.22;;;14.90;54.00;;;;;;6099563;29;20039;-74
2023/11/17 08:31:17;;;;;;;4.38;0.40;;;15.00;54.00;;;;;;6099638;29;20036;-73
2023/11/17 08:34:21;;;;;;;0.43;0.40;;;15.00;53.80;;;;;;6099134;29;20043;-73
2023/11/17 08:37:23;;;;;;;2.10;0.30;;;15.10;53.60;;;;;;6081885;29;20039;-73
2023/11/17 08:40:26;;;;;;;0.45;0.22;;;15.10;53.20;;;;;;6098515;29;20036;-73
2023/11/17 08:43:31;;;;;;;0.52;0.20;;;15.10;53.30;;;;;;6097414;29;20060;-74
2023/11/17 08:46:32;;;;;;;0.45;0.30;;;15.10;53.00;;;;;;6098266;29;20068;-73
2023/11/17 08:49:36;;;;;;;0.90;0.40;;;15.20;52.60;;;;;;6081558;29;20118;-74
2023/11/17 08:52:43;;;;;;;1.30;0.50;;;15.10;52.50;;;;;;6098263;29;20351;-74
2023/11/17 08:55:44;;;;;;;5.25;0.45;;;15.30;52.50;;;;;;6081449;29;20094;-73
2023/11/17 08:58:46;;;;;;;0.70;0.40;;;15.30;52.20;;;;;;6081172;29;20524;-73
2023/11/17 09:01:50;;;;;;;1.55;0.25;;;15.40;51.60;;;;;;6097787;29;20039;-74
2023/11/17 09:04:53;;;;;;;2.63;0.30;;;15.50;51.40;;;;;;6098036;29;20096;-73
2023/11/17 09:07:55;;;;;;;0.32;0.30;;;15.50;51.10;;;;;;6097956;29;20047;-74
2023/11/17 09:10:59;;;;;;;0.73;0.30;;;15.60;50.60;;;;;;6080999;29;20079;-74
2023/11/17 09:14:06;;;;;;;0.52;0.32;;;15.60;50.10;;;;;;6057687;29;20155;-74
2023/11/17 09:17:10;;;;;;;0.73;0.30;;;15.60;49.90;;;;;;6057737;29;20151;-74
2023/11/17 09:20:17;;;;;;;2.92;0.40;;;15.60;50.00;;;;;;6074014;29;20044;-75
2023/11/17 09:23:21;;;;;;;0.75;0.50;;;15.60;49.60;;;;;;6074720;29;20394;-73
2023/11/17 09:26:23;;;;;;;0.10;0.10;;;15.60;49.30;;;;;;6074356;29;20033;-73
2023/11/17 09:29:25;;;;;;;0.57;0.38;;;15.60;49.10;;;;;;6072667;29;20040;-74
2023/11/17 09:32:29;;;;;;;0.25;0.20;;;15.60;48.90;;;;;;6073413;29;20036;-74
2023/11/17 09:35:32;;;;;;;0.28;0.20;;;15.60;48.90;;;;;;6073186;29;20036;-74
2023/11/17 09:38:55;;;;;;;3.85;0.10;;;15.70;48.90;;;;;;6047016;29;20152;-74
2023/11/17 09:41:59;;;;;;;0.75;0.30;;;15.70;48.80;;;;;;6047181;29;20060;-72
2023/11/17 09:45:08;;;;;;;0.25;0.15;;;15.80;48.40;;;;;;6032045;29;20663;-74
2023/11/17 09:48:32;;;;;;;0.57;0.20;;;15.80;48.40;;;;;;6023761;29;20037;-74
2023/11/17 09:51:37;;;;;;;0.20;0.20;;;15.90;48.00;;;;;;6008360;29;20060;-74
2023/11/17 09:54:40;;;;;;;0.85;0.30;;;16.10;47.90;;;;;;6009120;29;20041;-73
2023/11/17 09:57:47;;;;;;;2.03;0.45;;;16.30;47.30;;;;;;6024180;29;20120;-73
2023/11/17 10:00:52;;;;;;;0.10;0.10;;;16.60;47.20;;;;;;5994193;29;20057;-73
2023/11/17 10:03:58;;;;;;;0.38;0.38;;;16.80;47.00;;;;;;6008446;29;20644;-72
2023/11/17 10:07:02;;;;;;;0.80;0.38;;;17.00;46.80;;;;;;6008817;29;20217;-73
2023/11/17 10:10:14;;;;;;;0.63;0.50;;;17.10;46.60;;;;;;6023101;29;20449;-74
2023/11/17 10:13:20;;;;;;;0.20;0.20;;;17.20;46.60;;;;;;6029306;29;20128;-74
2023/11/17 10:16:23;;;;;;;0.93;0.30;;;17.30;46.20;;;;;;6046897;29;20045;-73
2023/11/17 10:19:27;;;;;;;0.30;0.28;;;17.40;46.30;;;;;;6030721;29;20057;-74
2023/11/17 10:22:32;;;;;;;0.50;0.40;;;17.50;45.90;;;;;;6046772;29;20119;-74
2023/11/17 10:25:35;;;;;;;1.05;0.47;;;17.40;45.70;;;;;;6066839;29;20040;-74
2023/11/17 10:28:36;;;;;;;1.08;0.40;;;17.30;45.40;;;;;;6064399;29;20048;-73
2023/11/17 10:31:46;;;;;;;2.08;0.70;;;17.20;45.50;;;;;;6079553;29;20047;-74
2023/11/17 10:35:11;;;;;;;0.90;0.35;;;17.00;45.60;;;;;;6096052;29;20454;-75
2023/11/17 10:38:16;;;;;;;1.60;0.38;;;16.80;45.90;;;;;;6096014;29;20067;-74
2023/11/17 10:41:36;;;;;;;0.75;0.20;;;16.60;46.00;;;;;;6063111;29;20051;-73
2023/11/17 10:44:41;;;;;;;0.82;0.40;;;16.50;45.80;;;;;;6078871;29;20071;-73
2023/11/17 10:47:43;;;;;;;0.38;0.38;;;16.30;45.60;;;;;;6095023;29;20139;-74
2023/11/17 10:50:44;;;;;;;0.88;0.40;;;16.30;45.80;;;;;;6095380;29;20040;-73
2023/11/17 10:54:14;;;;;;;0.85;0.60;;;16.30;46.00;;;;;;6095801;29;20035;-73
2023/11/17 10:57:18;;;;;;;2.13;0.13;;;16.30;45.70;;;;;;6078690;29;20123;-74
2023/11/17 11:00:21;;;;;;;0.95;0.30;;;16.30;45.40;;;;;;6095618;29;20738;-74
2023/11/17 11:03:24;;;;;;;1.17;0.60;;;16.20;45.10;;;;;;6095692;29;20047;-74
2023/11/17 11:06:29;;;;;;;0.30;0.22;;;16.20;45.30;;;;;;6063749;29;20037;-74
2023/11/17 11:09:34;;;;;;;0.30;0.13;;;16.20;45.30;;;;;;6063594;29;20134;-73
2023/11/17 11:12:38;;;;;;;0.30;0.30;;;16.20;45.30;;;;;;6081593;29;20044;-75
2023/11/17 11:15:41;;;;;;;0.25;0.20;;;16.30;45.00;;;;;;6084935;29;20080;-74
2023/11/17 11:18:46;;;;;;;0.40;0.35;;;16.50;44.90;;;;;;6101773;29;20083;-74
2023/11/17 11:21:51;;;;;;;0.65;0.35;;;16.60;44.70;;;;;;6079523;29;20042;-75
2023/11/17 11:24:59;;;;;;;0.47;0.35;;;16.60;44.40;;;;;;6096527;29;20342;-74
2023/11/17 11:28:03;;;;;;;0.28;0.28;;;16.60;44.50;;;;;;6095680;29;20040;-75
2023/11/17 11:31:07;;;;;;;0.80;0.30;;;16.60;43.90;;;;;;6095493;29;20082;-73
2023/11/17 11:34:09;;;;;;;0.30;0.30;;;16.60;43.70;;;;;;6067803;29;20134;-74
2023/11/17 11:37:11;;;;;;;0.32;0.30;;;16.50;43.70;;;;;;6100488;29;20040;-75
2023/11/17 11:40:13;;;;;;;1.05;0.40;;;16.50;43.70;;;;;;6098776;29;20139;-75
2023/11/17 11:43:15;;;;;;;1.65;0.40;;;16.50;44.10;;;;;;6098420;29;20051;-75
2023/11/17 11:46:33;;;;;;;1.02;0.57;;;16.60;43.90;;;;;;6099480;29;20474;-74
2023/11/17 11:49:58;;;;;;;0.93;0.32;;;16.80;43.90;;;;;;6067566;29;20044;-74
2023/11/17 11:53:24;;;;;;;4.40;0.40;;;16.80;43.40;;;;;;6099949;29;20325;-75
2023/11/17 11:56:41;;;;;;;0.28;0.28;;;16.90;43.10;;;;;;6082564;29;20381;-74
2023/11/17 11:59:43;;;;;;;0.35;0.15;;;16.70;43.00;;;;;;6095429;29;20056;-73
2023/11/17 12:03:09;;;;;;;2.53;0.65;;;16.60;43.20;;;;;;6099383;29;20130;-73
2023/11/17 12:06:12;;;;;;;0.30;0.10;;;16.50;43.40;;;;;;6081661;29;20180;-73
2023/11/17 12:09:20;;;;;;;2.10;0.50;;;16.40;43.40;;;;;;6098786;29;20107;-73
2023/11/17 12:12:27;;;;;;;1.88;0.50;;;16.30;43.40;;;;;;6081798;29;20099;-74
2023/11/17 12:15:30;;;;;;;0.20;0.20;;;16.40;43.60;;;;;;6081707;29;20043;-75
2023/11/17 12:18:50;;;;;;;1.75;0.63;;;16.40;43.50;;;;;;6098897;29;20084;-74
2023/11/17 12:21:58;;;;;;;0.30;0.30;;;16.50;43.80;;;;;;6096448;29;20067;-73
2023/11/17 12:25:04;;;;;;;0.30;0.30;;;16.50;43.50;;;;;;6082022;29;20084;-72
2023/11/17 12:28:05;;;;;;;0.20;0.20;;;16.60;43.40;;;;;;6082257;29;20378;-75
2023/11/17 12:31:20;;;;;;;0.20;0.20;;;16.60;43.00;;;;;;6081761;29;20355;-75
2023/11/17 12:34:24;;;;;;;0.52;0.20;;;16.60;42.60;;;;;;6081425;29;20043;-73
2023/11/17 12:37:32;;;;;;;0.85;0.10;;;16.50;42.60;;;;;;6081263;29;20032;-74
2023/11/17 12:41:00;;;;;;;0.15;0.10;;;16.40;42.70;;;;;;6071242;29;20048;-74
2023/11/17 12:44:05;;;;;;;2.72;0.20;;;16.40;42.50;;;;;;6055767;29;20056;-73
2023/11/17 12:47:08;;;;;;;0.10;0.10;;;16.40;42.50;;;;;;6055076;29;20698;-74
2023/11/17 12:50:14;;;;;;;2.58;0.55;;;16.50;42.50;;;;;;6032539;29;20057;-72
2023/11/17 12:53:41;;;;;;;0.95;0.35;;;16.50;42.00;;;;;;6048212;29;20109;-74
2023/11/17 12:57:01;;;;;;;1.80;0.40;;;16.50;42.40;;;;;;6046994;29;20042;-73
2023/11/17 13:00:13;;;;;;;0.20;0.10;;;16.60;42.30;;;;;;6047395;29;20053;-71
2023/11/17 13:03:19;;;;;;;1.02;0.30;;;16.70;42.10;;;;;;6048050;29;20053;-74
2023/11/17 13:06:25;;;;;;;0.20;0.20;;;16.70;41.80;;;;;;6047895;29;20064;-74
2023/11/17 13:09:28;;;;;;;0.20;0.20;;;16.80;41.40;;;;;;6048256;29;20345;-73
2023/11/17 13:12:32;;;;;;;1.15;0.40;;;16.80;41.60;;;;;;6087558;29;20113;-74
2023/11/17 13:15:34;;;;;;;0.40;0.30;;;16.80;41.40;;;;;;6057311;29;20040;-73
2023/11/17 13:18:39;;;;;;;0.43;0.20;;;16.80;41.10;;;;;;6074317;29;20051;-74
2023/11/17 13:21:44;;;;;;;0.15;0.15;;;16.70;41.10;;;;;;6074200;29;20041;-74
2023/11/17 13:24:46;;;;;;;0.63;0.30;;;16.60;41.40;;;;;;6072723;29;20144;-73
2023/11/17 13:27:51;;;;;;;0.63;0.20;;;16.50;41.30;;;;;;6073353;29;20040;-73
2023/11/17 13:30:54;;;;;;;0.20;0.20;;;16.50;41.50;;;;;;6073203;29;20036;-74
2023/11/17 13:34:17;;;;;;;0.30;0.25;;;16.40;41.70;;;;;;6072922;29;20033;-74
2023/11/17 13:37:20;;;;;;;0.22;0.20;;;16.50;41.70;;;;;;6057160;29;20119;-74
2023/11/17 13:40:36;;;;;;;2.17;0.38;;;16.50;41.50;;;;;;6056918;29;20071;-72
2023/11/17 13:43:42;;;;;;;0.10;0.10;;;16.50;41.40;;;;;;6072489;29;20044;-73
2023/11/17 13:46:44;;;;;;;0.35;0.30;;;16.50;41.10;;;;;;6085853;29;20418;-72
2023/11/17 13:49:47;;;;;;;0.55;0.15;;;16.50;41.00;;;;;;6096725;29;20044;-73
2023/11/17 13:52:50;;;;;;;0.52;0.43;;;16.50;40.80;;;;;;6097434;29;20135;-74
2023/11/17 13:55:53;;;;;;;0.38;0.30;;;16.50;40.80;;;;;;6079025;29;20477;-75
2023/11/17 13:58:59;;;;;;;0.32;0.20;;;16.50;40.80;;;;;;6111533;29;20048;-73
2023/11/17 14:02:04;;;;;;;2.35;0.20;;;16.60;40.80;;;;;;6092839;29;20508;-74
2023/11/17 14:05:11;;;;;;;1.98;0.17;;;16.70;40.80;;;;;;6095566;29;20051;-74
2023/11/17 14:08:17;;;;;;;0.60;0.40;;;16.70;40.60;;;;;;6097341;29;20115;-73
2023/11/17 14:11:22;;;;;;;0.10;0.10;;;16.80;40.30;;;;;;6097542;29;20028;-75
2023/11/17 14:14:27;;;;;;;0.10;0.10;;;16.90;40.30;;;;;;6088949;29;20115;-74
2023/11/17 14:17:29;;;;;;;0.30;0.20;;;16.90;39.80;;;;;;6079892;29;20450;-74
2023/11/17 14:20:34;;;;;;;1.05;0.40;;;16.90;39.90;;;;;;6096463;29;20142;-72
2023/11/17 14:23:38;;;;;;;0.35;0.30;;;16.80;39.70;;;;;;6096446;29;20425;-74
2023/11/17 14:26:42;;;;;;;4.03;0.30;;;16.80;39.90;;;;;;6096331;29;20113;-75
2023/11/17 14:29:46;;;;;;;0.20;0.05;;;16.80;39.90;;;;;;6079806;29;20066;-74
2023/11/17 14:32:49;;;;;;;0.20;0.20;;;16.70;39.80;;;;;;6079854;29;20156;-75
2023/11/17 14:35:52;;;;;;;0.47;0.30;;;16.60;40.00;;;;;;6079329;29;20035;-74
2023/11/17 14:38:55;;;;;;;0.77;0.50;;;16.50;40.20;;;;;;6079133;29;20043;-75
2023/11/17 14:42:01;;;;;;;0.85;0.40;;;16.50;40.40;;;;;;6095624;29;20032;-75
2023/11/17 14:45:05;;;;;;;3.47;0.35;;;16.40;40.40;;;;;;6078971;29;20044;-74
2023/11/17 14:48:09;;;;;;;2.28;0.28;;;16.40;40.70;;;;;;6096119;29;20039;-73
2023/11/17 14:51:13;;;;;;;0.10;0.10;;;16.30;40.60;;;;;;6094601;29;20028;-73
2023/11/17 14:54:17;;;;;;;1.40;0.30;;;16.30;40.70;;;;;;6095868;29;20129;-74
2023/11/17 14:57:20;;;;;;;0.20;0.20;;;16.30;40.60;;;;;;6094698;29;20040;-74
2023/11/17 15:00:24;;;;;;;1.20;0.50;;;16.20;40.60;;;;;;6110129;29;20127;-73
2023/11/17 15:03:28;;;;;;;0.30;0.20;;;16.20;40.70;;;;;;6096233;29;20035;-74
2023/11/17 15:06:41;;;;;;;0.45;0.10;;;16.20;40.80;;;;;;6098112;29;20477;-73
2023/11/17 15:09:49;;;;;;;0.22;0.22;;;16.10;40.80;;;;;;6100529;29;20125;-74
2023/11/17 15:12:53;;;;;;;0.10;0.10;;;16.10;40.90;;;;;;6099321;29;20040;-73
2023/11/17 15:15:56;;;;;;;0.15;0.15;;;16.10;41.00;;;;;;6083438;29;20039;-73
2023/11/17 15:18:59;;;;;;;0.20;0.20;;;16.10;41.10;;;;;;6100513;29;20040;-73
2023/11/17 15:22:00;;;;;;;0.73;0.28;;;16.10;41.30;;;;;;6100271;29;20036;-75
2023/11/17 15:25:01;;;;;;;1.08;0.52;;;16.00;41.40;;;;;;6100046;29;20032;-73
2023/11/17 15:28:20;;;;;;;2.55;0.35;;;16.00;41.60;;;;;;6100441;29;20083;-73
2023/11/17 15:31:28;;;;;;;0.40;0.20;;;15.90;41.70;;;;;;6100582;29;20622;-73
2023/11/17 15:34:30;;;;;;;;;;;15.90;42.00;;;;;;6084829;29;20104;-74
2023/11/17 15:37:35;;;;;;;1.08;0.35;;;15.90;42.20;;;;;;6100195;29;19938;-75
2023/11/17 15:40:40;;;;;;;0.65;0.30;;;15.80;42.20;;;;;;6099620;29;20095;-74
2023/11/17 15:43:43;;;;;;;0.22;0.22;;;15.80;42.50;;;;;;6099393;29;20095;-74
2023/11/17 15:46:46;;;;;;;1.60;0.43;;;15.70;42.60;;;;;;6088329;29;20631;-73
2023/11/17 15:49:50;;;;;;;5.72;0.40;;;15.70;42.80;;;;;;6113484;29;20059;-74
2023/11/17 15:52:53;;;;;;;0.70;0.30;;;15.60;43.00;;;;;;6099551;29;20072;-74
2023/11/17 15:55:56;;;;;;;2.13;0.40;;;15.60;43.20;;;;;;6097728;29;20051;-73
2023/11/17 15:59:01;;;;;;;0.30;0.20;;;15.50;43.20;;;;;;6099366;29;20114;-73
2023/11/17 16:02:02;;;;;;;0.85;0.30;;;15.50;43.30;;;;;;6081151;29;20052;-74
2023/11/17 16:05:13;;;;;;;1.17;0.25;;;15.40;43.40;;;;;;6082478;29;20024;-74
2023/11/17 16:08:16;;;;;;;0.20;0.20;;;15.40;43.40;;;;;;6099808;29;20111;-74